sensor_id;sensor_type;location;lat;lon;timestamp;P1;durP1;ratioP1;P2;durP2;ratioP2
16954;SDS011;8594;52.052;8.354;2023-03-01T00:00:17;15.53;;;7.17;;
16954;SDS011;8594;52.052;8.354;2023-03-01T00:02:45;13.87;;;7.20;;
16954;SDS011;8594;52.052;8.354;2023-03-01T00:05:12;18.20;;;7.63;;
16954;SDS011;8594;52.052;8.354;2023-03-01T00:07:40;14.73;;;6.67;;
16954;SDS011;8594;52.052;8.354;2023-03-01T00:10:07;14.43;;;7.30;;
16954;SDS011;8594;52.052;8.354;2023-03-01T00:12:36;16.03;;;8.10;;
16954;SDS011;8594;52.052;8.354;2023-03-01T00:15:03;13.50;;;7.30;;
16954;SDS011;8594;52.052;8.354;2023-03-01T00:17:31;16.90;;;8.67;;
16954;SDS011;8594;52.052;8.354;2023-03-01T00:19:58;19.13;;;7.77;;
16954;SDS011;8594;52.052;8.354;2023-03-01T00:22:26;15.77;;;8.33;;
16954;SDS011;8594;52.052;8.354;2023-03-01T00:24:55;18.47;;;7.90;;
16954;SDS011;8594;52.052;8.354;2023-03-01T00:27:22;12.83;;;7.57;;
16954;SDS011;8594;52.052;8.354;2023-03-01T00:29:49;15.07;;;7.93;;
16954;SDS011;8594;52.052;8.354;2023-03-01T00:32:16;14.80;;;7.50;;
16954;SDS011;8594;52.052;8.354;2023-03-01T00:34:42;13.23;;;7.87;;
16954;SDS011;8594;52.052;8.354;2023-03-01T00:37:18;22.57;;;8.97;;
16954;SDS011;8594;52.052;8.354;2023-03-01T00:39:46;16.63;;;8.57;;
16954;SDS011;8594;52.052;8.354;2023-03-01T00:42:14;16.10;;;7.83;;
16954;SDS011;8594;52.052;8.354;2023-03-01T00:44:41;16.30;;;8.50;;
16954;SDS011;8594;52.052;8.354;2023-03-01T00:47:08;17.23;;;7.90;;
16954;SDS011;8594;52.052;8.354;2023-03-01T00:49:35;11.87;;;7.10;;
16954;SDS011;8594;52.052;8.354;2023-03-01T00:52:02;13.23;;;8.63;;
16954;SDS011;8594;52.052;8.354;2023-03-01T00:54:28;13.87;;;7.70;;
16954;SDS011;8594;52.052;8.354;2023-03-01T00:56:55;11.83;;;6.43;;
16954;SDS011;8594;52.052;8.354;2023-03-01T00:59:23;12.53;;;7.23;;
16954;SDS011;8594;52.052;8.354;2023-03-01T01:01:50;16.37;;;8.07;;
16954;SDS011;8594;52.052;8.354;2023-03-01T01:04:17;15.30;;;7.50;;
16954;SDS011;8594;52.052;8.354;2023-03-01T01:06:45;13.93;;;8.17;;
16954;SDS011;8594;52.052;8.354;2023-03-01T01:09:13;18.10;;;8.00;;
16954;SDS011;8594;52.052;8.354;2023-03-01T01:11:42;11.47;;;7.23;;
16954;SDS011;8594;52.052;8.354;2023-03-01T01:14:11;13.93;;;7.40;;
16954;SDS011;8594;52.052;8.354;2023-03-01T01:16:39;15.07;;;7.60;;
16954;SDS011;8594;52.052;8.354;2023-03-01T01:19:06;18.27;;;9.13;;
16954;SDS011;8594;52.052;8.354;2023-03-01T01:21:33;15.30;;;8.17;;
16954;SDS011;8594;52.052;8.354;2023-03-01T01:24:02;13.37;;;7.57;;
16954;SDS011;8594;52.052;8.354;2023-03-01T01:26:30;20.03;;;7.73;;
16954;SDS011;8594;52.052;8.354;2023-03-01T01:28:59;12.93;;;7.67;;
16954;SDS011;8594;52.052;8.354;2023-03-01T01:31:28;15.77;;;8.00;;
16954;SDS011;8594;52.052;8.354;2023-03-01T01:33:58;14.23;;;7.30;;
16954;SDS011;8594;52.052;8.354;2023-03-01T01:36:26;16.00;;;7.80;;
16954;SDS011;8594;52.052;8.354;2023-03-01T01:38:54;18.03;;;7.90;;
16954;SDS011;8594;52.052;8.354;2023-03-01T01:41:21;19.07;;;7.63;;
16954;SDS011;8594;52.052;8.354;2023-03-01T01:44:08;15.13;;;8.20;;
16954;SDS011;8594;52.052;8.354;2023-03-01T01:46:41;12.20;;;7.00;;
16954;SDS011;8594;52.052;8.354;2023-03-01T01:49:16;15.73;;;7.50;;
16954;SDS011;8594;52.052;8.354;2023-03-01T01:51:51;15.53;;;7.97;;
16954;SDS011;8594;52.052;8.354;2023-03-01T01:54:27;14.27;;;7.73;;
16954;SDS011;8594;52.052;8.354;2023-03-01T01:57:06;15.97;;;8.53;;
16954;SDS011;8594;52.052;8.354;2023-03-01T01:59:39;12.83;;;7.50;;
16954;SDS011;8594;52.052;8.354;2023-03-01T02:02:14;14.70;;;7.73;;
16954;SDS011;8594;52.052;8.354;2023-03-01T02:04:43;12.07;;;7.43;;
16954;SDS011;8594;52.052;8.354;2023-03-01T02:07:13;13.57;;;8.17;;
16954;SDS011;8594;52.052;8.354;2023-03-01T02:09:43;15.37;;;8.20;;
16954;SDS011;8594;52.052;8.354;2023-03-01T02:12:14;14.83;;;7.70;;
16954;SDS011;8594;52.052;8.354;2023-03-01T02:14:43;15.80;;;7.80;;
16954;SDS011;8594;52.052;8.354;2023-03-01T02:17:10;17.63;;;8.30;;
16954;SDS011;8594;52.052;8.354;2023-03-01T02:19:47;14.90;;;8.13;;
16954;SDS011;8594;52.052;8.354;2023-03-01T02:22:32;15.00;;;7.60;;
16954;SDS011;8594;52.052;8.354;2023-03-01T02:25:04;15.43;;;7.70;;
16954;SDS011;8594;52.052;8.354;2023-03-01T02:27:51;14.23;;;8.40;;
16954;SDS011;8594;52.052;8.354;2023-03-01T02:30:28;13.17;;;7.73;;
16954;SDS011;8594;52.052;8.354;2023-03-01T02:32:57;15.43;;;8.03;;
16954;SDS011;8594;52.052;8.354;2023-03-01T02:35:28;15.23;;;7.83;;
16954;SDS011;8594;52.052;8.354;2023-03-01T02:37:59;19.67;;;7.87;;
16954;SDS011;8594;52.052;8.354;2023-03-01T02:40:28;15.70;;;7.27;;
16954;SDS011;8594;52.052;8.354;2023-03-01T02:42:58;15.43;;;7.77;;
16954;SDS011;8594;52.052;8.354;2023-03-01T02:45:25;16.23;;;8.50;;
16954;SDS011;8594;52.052;8.354;2023-03-01T02:47:53;18.17;;;8.33;;
16954;SDS011;8594;52.052;8.354;2023-03-01T02:50:38;15.07;;;8.10;;
16954;SDS011;8594;52.052;8.354;2023-03-01T02:53:27;16.13;;;8.60;;
16954;SDS011;8594;52.052;8.354;2023-03-01T02:56:05;15.53;;;8.17;;
16954;SDS011;8594;52.052;8.354;2023-03-01T02:58:37;14.97;;;7.90;;
16954;SDS011;8594;52.052;8.354;2023-03-01T03:01:11;13.50;;;8.00;;
16954;SDS011;8594;52.052;8.354;2023-03-01T03:03:40;13.73;;;8.53;;
16954;SDS011;8594;52.052;8.354;2023-03-01T03:06:07;12.73;;;7.33;;
16954;SDS011;8594;52.052;8.354;2023-03-01T03:08:35;16.00;;;8.13;;
16954;SDS011;8594;52.052;8.354;2023-03-01T03:11:02;13.53;;;7.70;;
16954;SDS011;8594;52.052;8.354;2023-03-01T03:13:29;15.47;;;7.63;;
16954;SDS011;8594;52.052;8.354;2023-03-01T03:15:57;13.20;;;7.83;;
16954;SDS011;8594;52.052;8.354;2023-03-01T03:18:25;13.00;;;7.07;;
16954;SDS011;8594;52.052;8.354;2023-03-01T03:20:52;13.10;;;7.23;;
16954;SDS011;8594;52.052;8.354;2023-03-01T03:23:20;13.47;;;7.70;;
16954;SDS011;8594;52.052;8.354;2023-03-01T03:25:48;13.37;;;8.00;;
16954;SDS011;8594;52.052;8.354;2023-03-01T03:28:17;13.50;;;7.33;;
16954;SDS011;8594;52.052;8.354;2023-03-01T03:30:44;15.33;;;7.57;;
16954;SDS011;8594;52.052;8.354;2023-03-01T03:33:12;15.10;;;7.83;;
16954;SDS011;8594;52.052;8.354;2023-03-01T03:35:41;14.93;;;7.80;;
16954;SDS011;8594;52.052;8.354;2023-03-01T03:38:11;13.77;;;7.20;;
16954;SDS011;8594;52.052;8.354;2023-03-01T03:40:42;13.13;;;7.47;;
16954;SDS011;8594;52.052;8.354;2023-03-01T03:43:12;13.77;;;7.10;;
16954;SDS011;8594;52.052;8.354;2023-03-01T03:45:43;18.07;;;8.10;;
16954;SDS011;8594;52.052;8.354;2023-03-01T03:48:11;11.90;;;7.23;;
16954;SDS011;8594;52.052;8.354;2023-03-01T03:50:38;13.00;;;7.17;;
16954;SDS011;8594;52.052;8.354;2023-03-01T03:53:08;12.93;;;7.10;;
16954;SDS011;8594;52.052;8.354;2023-03-01T03:55:38;14.87;;;7.37;;
16954;SDS011;8594;52.052;8.354;2023-03-01T03:58:08;16.30;;;7.50;;
16954;SDS011;8594;52.052;8.354;2023-03-01T04:00:37;11.37;;;6.93;;
16954;SDS011;8594;52.052;8.354;2023-03-01T04:03:06;13.43;;;7.43;;
16954;SDS011;8594;52.052;8.354;2023-03-01T04:05:35;14.00;;;7.07;;
16954;SDS011;8594;52.052;8.354;2023-03-01T04:08:04;14.83;;;7.17;;
16954;SDS011;8594;52.052;8.354;2023-03-01T04:10:33;13.50;;;7.47;;
16954;SDS011;8594;52.052;8.354;2023-03-01T04:13:02;12.70;;;7.13;;
16954;SDS011;8594;52.052;8.354;2023-03-01T04:15:30;13.03;;;7.00;;
16954;SDS011;8594;52.052;8.354;2023-03-01T04:17:59;11.93;;;7.27;;
16954;SDS011;8594;52.052;8.354;2023-03-01T04:20:27;14.23;;;6.97;;
16954;SDS011;8594;52.052;8.354;2023-03-01T04:23:00;11.70;;;7.37;;
16954;SDS011;8594;52.052;8.354;2023-03-01T04:25:37;13.13;;;7.50;;
16954;SDS011;8594;52.052;8.354;2023-03-01T04:28:06;16.07;;;8.30;;
16954;SDS011;8594;52.052;8.354;2023-03-01T04:30:34;15.77;;;7.57;;
16954;SDS011;8594;52.052;8.354;2023-03-01T04:33:03;14.57;;;8.23;;
16954;SDS011;8594;52.052;8.354;2023-03-01T04:35:30;14.50;;;7.93;;
16954;SDS011;8594;52.052;8.354;2023-03-01T04:37:59;15.70;;;9.00;;
16954;SDS011;8594;52.052;8.354;2023-03-01T04:40:26;16.47;;;8.17;;
16954;SDS011;8594;52.052;8.354;2023-03-01T04:42:54;14.07;;;7.37;;
16954;SDS011;8594;52.052;8.354;2023-03-01T04:45:21;13.63;;;7.33;;
16954;SDS011;8594;52.052;8.354;2023-03-01T04:47:48;12.03;;;6.97;;
16954;SDS011;8594;52.052;8.354;2023-03-01T04:50:17;19.43;;;8.37;;
16954;SDS011;8594;52.052;8.354;2023-03-01T04:52:47;17.07;;;7.90;;
16954;SDS011;8594;52.052;8.354;2023-03-01T04:55:14;15.53;;;8.23;;
16954;SDS011;8594;52.052;8.354;2023-03-01T04:57:41;15.27;;;8.23;;
16954;SDS011;8594;52.052;8.354;2023-03-01T05:00:12;17.80;;;8.07;;
16954;SDS011;8594;52.052;8.354;2023-03-01T05:02:47;16.33;;;7.77;;
16954;SDS011;8594;52.052;8.354;2023-03-01T05:05:18;15.80;;;8.13;;
16954;SDS011;8594;52.052;8.354;2023-03-01T05:07:50;20.67;;;9.03;;
16954;SDS011;8594;52.052;8.354;2023-03-01T05:10:22;21.77;;;9.03;;
16954;SDS011;8594;52.052;8.354;2023-03-01T05:12:50;14.57;;;8.63;;
16954;SDS011;8594;52.052;8.354;2023-03-01T05:15:19;14.50;;;8.67;;
16954;SDS011;8594;52.052;8.354;2023-03-01T05:17:50;24.17;;;8.90;;
16954;SDS011;8594;52.052;8.354;2023-03-01T05:20:17;21.47;;;8.90;;
16954;SDS011;8594;52.052;8.354;2023-03-01T05:22:47;16.87;;;8.47;;
16954;SDS011;8594;52.052;8.354;2023-03-01T05:25:14;14.07;;;8.50;;
16954;SDS011;8594;52.052;8.354;2023-03-01T05:27:41;15.47;;;8.07;;
16954;SDS011;8594;52.052;8.354;2023-03-01T05:30:09;17.20;;;8.97;;
16954;SDS011;8594;52.052;8.354;2023-03-01T05:32:41;22.60;;;9.53;;
16954;SDS011;8594;52.052;8.354;2023-03-01T05:35:10;14.60;;;8.57;;
16954;SDS011;8594;52.052;8.354;2023-03-01T05:37:40;14.43;;;8.47;;
16954;SDS011;8594;52.052;8.354;2023-03-01T05:40:08;15.50;;;8.47;;
16954;SDS011;8594;52.052;8.354;2023-03-01T05:42:43;16.20;;;8.03;;
16954;SDS011;8594;52.052;8.354;2023-03-01T05:45:12;14.57;;;8.13;;
16954;SDS011;8594;52.052;8.354;2023-03-01T05:47:42;15.17;;;8.53;;
16954;SDS011;8594;52.052;8.354;2023-03-01T05:50:12;14.30;;;7.97;;
16954;SDS011;8594;52.052;8.354;2023-03-01T05:52:44;16.30;;;9.10;;
16954;SDS011;8594;52.052;8.354;2023-03-01T05:55:13;15.40;;;9.33;;
16954;SDS011;8594;52.052;8.354;2023-03-01T05:57:41;20.13;;;9.40;;
16954;SDS011;8594;52.052;8.354;2023-03-01T06:00:08;22.37;;;10.10;;
16954;SDS011;8594;52.052;8.354;2023-03-01T06:02:36;19.33;;;9.33;;
16954;SDS011;8594;52.052;8.354;2023-03-01T06:05:06;22.43;;;9.83;;
16954;SDS011;8594;52.052;8.354;2023-03-01T06:07:34;17.13;;;9.20;;
16954;SDS011;8594;52.052;8.354;2023-03-01T06:10:02;24.27;;;9.27;;
16954;SDS011;8594;52.052;8.354;2023-03-01T06:12:31;21.40;;;9.57;;
16954;SDS011;8594;52.052;8.354;2023-03-01T06:14:59;19.87;;;10.57;;
16954;SDS011;8594;52.052;8.354;2023-03-01T06:17:28;22.40;;;9.83;;
16954;SDS011;8594;52.052;8.354;2023-03-01T06:19:57;16.03;;;9.30;;
16954;SDS011;8594;52.052;8.354;2023-03-01T06:22:25;21.03;;;10.20;;
16954;SDS011;8594;52.052;8.354;2023-03-01T06:24:53;22.37;;;9.73;;
16954;SDS011;8594;52.052;8.354;2023-03-01T06:27:19;17.30;;;10.20;;
16954;SDS011;8594;52.052;8.354;2023-03-01T06:29:47;21.10;;;10.37;;
16954;SDS011;8594;52.052;8.354;2023-03-01T06:32:13;19.00;;;9.40;;
16954;SDS011;8594;52.052;8.354;2023-03-01T06:34:40;21.50;;;9.93;;
16954;SDS011;8594;52.052;8.354;2023-03-01T06:37:07;20.50;;;10.43;;
16954;SDS011;8594;52.052;8.354;2023-03-01T06:39:36;24.67;;;10.47;;
16954;SDS011;8594;52.052;8.354;2023-03-01T06:42:04;22.00;;;10.20;;
16954;SDS011;8594;52.052;8.354;2023-03-01T06:44:31;21.77;;;10.33;;
16954;SDS011;8594;52.052;8.354;2023-03-01T06:46:57;17.83;;;10.30;;
16954;SDS011;8594;52.052;8.354;2023-03-01T06:49:24;18.37;;;10.37;;
16954;SDS011;8594;52.052;8.354;2023-03-01T06:51:51;26.43;;;10.17;;
16954;SDS011;8594;52.052;8.354;2023-03-01T06:54:18;20.00;;;10.03;;
16954;SDS011;8594;52.052;8.354;2023-03-01T06:56:48;26.40;;;9.70;;
16954;SDS011;8594;52.052;8.354;2023-03-01T06:59:16;21.90;;;10.23;;
16954;SDS011;8594;52.052;8.354;2023-03-01T07:01:44;21.33;;;9.83;;
16954;SDS011;8594;52.052;8.354;2023-03-01T07:04:10;18.70;;;9.50;;
16954;SDS011;8594;52.052;8.354;2023-03-01T07:06:38;21.87;;;10.50;;
16954;SDS011;8594;52.052;8.354;2023-03-01T07:09:06;18.27;;;9.90;;
16954;SDS011;8594;52.052;8.354;2023-03-01T07:11:32;20.27;;;9.57;;
16954;SDS011;8594;52.052;8.354;2023-03-01T07:14:01;15.90;;;9.20;;
16954;SDS011;8594;52.052;8.354;2023-03-01T07:16:28;17.03;;;8.63;;
16954;SDS011;8594;52.052;8.354;2023-03-01T07:18:55;20.30;;;9.33;;
16954;SDS011;8594;52.052;8.354;2023-03-01T07:21:21;17.20;;;8.30;;
16954;SDS011;8594;52.052;8.354;2023-03-01T07:23:48;23.83;;;9.07;;
16954;SDS011;8594;52.052;8.354;2023-03-01T07:26:15;18.97;;;9.13;;
16954;SDS011;8594;52.052;8.354;2023-03-01T07:28:42;18.93;;;8.70;;
16954;SDS011;8594;52.052;8.354;2023-03-01T07:31:10;19.10;;;10.03;;
16954;SDS011;8594;52.052;8.354;2023-03-01T07:33:37;24.00;;;10.27;;
16954;SDS011;8594;52.052;8.354;2023-03-01T07:36:04;15.47;;;8.70;;
16954;SDS011;8594;52.052;8.354;2023-03-01T07:38:32;15.77;;;7.93;;
16954;SDS011;8594;52.052;8.354;2023-03-01T07:41:00;17.43;;;8.77;;
16954;SDS011;8594;52.052;8.354;2023-03-01T07:43:29;13.53;;;8.20;;
16954;SDS011;8594;52.052;8.354;2023-03-01T07:45:57;17.90;;;9.27;;
16954;SDS011;8594;52.052;8.354;2023-03-01T07:48:27;18.73;;;7.77;;
16954;SDS011;8594;52.052;8.354;2023-03-01T07:50:57;16.77;;;8.27;;
16954;SDS011;8594;52.052;8.354;2023-03-01T07:53:25;15.98;;;8.38;;
16954;SDS011;8594;52.052;8.354;2023-03-01T07:55:59;15.27;;;8.43;;
16954;SDS011;8594;52.052;8.354;2023-03-01T07:58:27;18.00;;;8.77;;
16954;SDS011;8594;52.052;8.354;2023-03-01T08:00:54;17.53;;;8.50;;
16954;SDS011;8594;52.052;8.354;2023-03-01T08:03:21;16.17;;;8.33;;
16954;SDS011;8594;52.052;8.354;2023-03-01T08:05:49;14.97;;;8.40;;
16954;SDS011;8594;52.052;8.354;2023-03-01T08:08:19;15.70;;;7.83;;
16954;SDS011;8594;52.052;8.354;2023-03-01T08:10:46;14.60;;;8.23;;
16954;SDS011;8594;52.052;8.354;2023-03-01T08:13:13;16.93;;;8.97;;
16954;SDS011;8594;52.052;8.354;2023-03-01T08:15:47;15.03;;;7.93;;
16954;SDS011;8594;52.052;8.354;2023-03-01T08:18:14;15.10;;;8.47;;
16954;SDS011;8594;52.052;8.354;2023-03-01T08:20:41;14.00;;;8.30;;
16954;SDS011;8594;52.052;8.354;2023-03-01T08:23:09;20.43;;;8.40;;
16954;SDS011;8594;52.052;8.354;2023-03-01T08:25:36;20.23;;;10.37;;
16954;SDS011;8594;52.052;8.354;2023-03-01T08:28:03;16.17;;;8.70;;
16954;SDS011;8594;52.052;8.354;2023-03-01T08:30:31;17.50;;;8.80;;
16954;SDS011;8594;52.052;8.354;2023-03-01T08:32:58;16.53;;;8.20;;
16954;SDS011;8594;52.052;8.354;2023-03-01T08:35:25;14.33;;;8.50;;
16954;SDS011;8594;52.052;8.354;2023-03-01T08:37:52;16.23;;;8.03;;
16954;SDS011;8594;52.052;8.354;2023-03-01T08:40:20;16.60;;;9.33;;
16954;SDS011;8594;52.052;8.354;2023-03-01T08:42:47;16.00;;;8.30;;
16954;SDS011;8594;52.052;8.354;2023-03-01T08:45:13;16.33;;;9.20;;
16954;SDS011;8594;52.052;8.354;2023-03-01T08:47:43;16.30;;;8.80;;
16954;SDS011;8594;52.052;8.354;2023-03-01T08:50:10;20.00;;;9.43;;
16954;SDS011;8594;52.052;8.354;2023-03-01T08:52:37;16.13;;;9.07;;
16954;SDS011;8594;52.052;8.354;2023-03-01T08:55:05;21.27;;;9.37;;
16954;SDS011;8594;52.052;8.354;2023-03-01T08:57:34;18.73;;;9.83;;
16954;SDS011;8594;52.052;8.354;2023-03-01T09:00:02;17.43;;;9.77;;
16954;SDS011;8594;52.052;8.354;2023-03-01T09:02:33;23.00;;;10.00;;
16954;SDS011;8594;52.052;8.354;2023-03-01T09:05:00;19.13;;;9.77;;
16954;SDS011;8594;52.052;8.354;2023-03-01T09:07:27;21.70;;;9.33;;
16954;SDS011;8594;52.052;8.354;2023-03-01T09:09:54;20.20;;;9.17;;
16954;SDS011;8594;52.052;8.354;2023-03-01T09:12:21;16.73;;;9.10;;
16954;SDS011;8594;52.052;8.354;2023-03-01T09:14:51;16.60;;;8.93;;
16954;SDS011;8594;52.052;8.354;2023-03-01T09:17:17;19.57;;;9.83;;
16954;SDS011;8594;52.052;8.354;2023-03-01T09:19:46;20.90;;;9.73;;
16954;SDS011;8594;52.052;8.354;2023-03-01T09:22:13;18.70;;;9.27;;
16954;SDS011;8594;52.052;8.354;2023-03-01T09:24:40;16.07;;;8.67;;
16954;SDS011;8594;52.052;8.354;2023-03-01T09:27:07;14.67;;;8.77;;
16954;SDS011;8594;52.052;8.354;2023-03-01T09:29:33;15.03;;;8.73;;
16954;SDS011;8594;52.052;8.354;2023-03-01T09:32:02;20.57;;;9.10;;
16954;SDS011;8594;52.052;8.354;2023-03-01T09:34:29;21.03;;;8.50;;
16954;SDS011;8594;52.052;8.354;2023-03-01T09:37:17;16.43;;;8.63;;
16954;SDS011;8594;52.052;8.354;2023-03-01T09:39:43;14.40;;;9.00;;
16954;SDS011;8594;52.052;8.354;2023-03-01T09:42:11;14.07;;;7.80;;
16954;SDS011;8594;52.052;8.354;2023-03-01T09:44:42;16.57;;;9.20;;
16954;SDS011;8594;52.052;8.354;2023-03-01T09:47:17;14.53;;;8.47;;
16954;SDS011;8594;52.052;8.354;2023-03-01T09:49:48;19.00;;;9.10;;
16954;SDS011;8594;52.052;8.354;2023-03-01T09:52:29;14.93;;;9.13;;
16954;SDS011;8594;52.052;8.354;2023-03-01T09:55:05;15.67;;;8.43;;
16954;SDS011;8594;52.052;8.354;2023-03-01T09:57:38;23.10;;;10.10;;
16954;SDS011;8594;52.052;8.354;2023-03-01T10:00:16;17.67;;;7.80;;
16954;SDS011;8594;52.052;8.354;2023-03-01T10:03:02;15.40;;;8.30;;
16954;SDS011;8594;52.052;8.354;2023-03-01T10:05:48;22.10;;;8.73;;
16954;SDS011;8594;52.052;8.354;2023-03-01T10:11:17;13.50;;;7.73;;
16954;SDS011;8594;52.052;8.354;2023-03-01T10:13:50;13.27;;;7.87;;
16954;SDS011;8594;52.052;8.354;2023-03-01T10:16:33;13.90;;;7.30;;
16954;SDS011;8594;52.052;8.354;2023-03-01T10:19:11;13.17;;;7.37;;
16954;SDS011;8594;52.052;8.354;2023-03-01T10:21:44;15.77;;;8.63;;
16954;SDS011;8594;52.052;8.354;2023-03-01T10:24:12;17.77;;;7.73;;
16954;SDS011;8594;52.052;8.354;2023-03-01T10:26:46;14.50;;;7.53;;
16954;SDS011;8594;52.052;8.354;2023-03-01T10:29:23;15.93;;;7.13;;
16954;SDS011;8594;52.052;8.354;2023-03-01T10:31:55;18.37;;;8.27;;
16954;SDS011;8594;52.052;8.354;2023-03-01T10:34:31;17.20;;;8.73;;
16954;SDS011;8594;52.052;8.354;2023-03-01T10:37:01;14.20;;;7.37;;
16954;SDS011;8594;52.052;8.354;2023-03-01T10:39:40;15.20;;;8.00;;
16954;SDS011;8594;52.052;8.354;2023-03-01T10:42:25;18.47;;;8.20;;
16954;SDS011;8594;52.052;8.354;2023-03-01T10:44:55;14.87;;;7.60;;
16954;SDS011;8594;52.052;8.354;2023-03-01T10:47:24;16.20;;;8.43;;
16954;SDS011;8594;52.052;8.354;2023-03-01T10:50:02;13.27;;;7.30;;
16954;SDS011;8594;52.052;8.354;2023-03-01T10:52:43;15.10;;;8.17;;
16954;SDS011;8594;52.052;8.354;2023-03-01T10:55:26;15.93;;;7.67;;
16954;SDS011;8594;52.052;8.354;2023-03-01T10:58:15;16.20;;;8.60;;
16954;SDS011;8594;52.052;8.354;2023-03-01T11:00:47;13.67;;;7.17;;
16954;SDS011;8594;52.052;8.354;2023-03-01T11:03:18;11.90;;;6.67;;
16954;SDS011;8594;52.052;8.354;2023-03-01T11:05:54;13.47;;;6.97;;
16954;SDS011;8594;52.052;8.354;2023-03-01T11:08:35;17.07;;;8.00;;
16954;SDS011;8594;52.052;8.354;2023-03-01T11:11:17;13.10;;;7.27;;
16954;SDS011;8594;52.052;8.354;2023-03-01T11:13:53;11.43;;;6.83;;
16954;SDS011;8594;52.052;8.354;2023-03-01T11:16:33;14.13;;;6.97;;
16954;SDS011;8594;52.052;8.354;2023-03-01T11:19:18;11.63;;;6.57;;
16954;SDS011;8594;52.052;8.354;2023-03-01T11:21:52;12.57;;;6.93;;
16954;SDS011;8594;52.052;8.354;2023-03-01T11:24:27;13.33;;;6.50;;
16954;SDS011;8594;52.052;8.354;2023-03-01T11:27:04;15.20;;;7.37;;
16954;SDS011;8594;52.052;8.354;2023-03-01T11:29:41;14.57;;;7.17;;
16954;SDS011;8594;52.052;8.354;2023-03-01T11:32:16;14.70;;;7.40;;
16954;SDS011;8594;52.052;8.354;2023-03-01T11:34:47;14.10;;;7.07;;
16954;SDS011;8594;52.052;8.354;2023-03-01T11:37:26;14.07;;;7.87;;
16954;SDS011;8594;52.052;8.354;2023-03-01T11:40:03;13.30;;;6.73;;
16954;SDS011;8594;52.052;8.354;2023-03-01T11:42:44;13.67;;;6.30;;
16954;SDS011;8594;52.052;8.354;2023-03-01T11:45:22;14.40;;;6.73;;
16954;SDS011;8594;52.052;8.354;2023-03-01T11:48:01;15.43;;;7.03;;
16954;SDS011;8594;52.052;8.354;2023-03-01T11:50:49;14.10;;;6.60;;
16954;SDS011;8594;52.052;8.354;2023-03-01T11:53:26;14.67;;;6.40;;
16954;SDS011;8594;52.052;8.354;2023-03-01T11:56:14;13.63;;;6.40;;
16954;SDS011;8594;52.052;8.354;2023-03-01T11:59:03;11.83;;;6.43;;
16954;SDS011;8594;52.052;8.354;2023-03-01T12:02:18;14.53;;;7.17;;
16954;SDS011;8594;52.052;8.354;2023-03-01T12:05:23;10.47;;;6.03;;
16954;SDS011;8594;52.052;8.354;2023-03-01T12:08:31;10.77;;;5.50;;
16954;SDS011;8594;52.052;8.354;2023-03-01T12:11:06;11.10;;;5.87;;
16954;SDS011;8594;52.052;8.354;2023-03-01T12:13:52;12.93;;;5.90;;
16954;SDS011;8594;52.052;8.354;2023-03-01T12:16:47;13.10;;;6.20;;
16954;SDS011;8594;52.052;8.354;2023-03-01T12:19:46;11.77;;;6.00;;
16954;SDS011;8594;52.052;8.354;2023-03-01T12:22:44;10.83;;;5.67;;
16954;SDS011;8594;52.052;8.354;2023-03-01T12:25:35;10.07;;;5.43;;
16954;SDS011;8594;52.052;8.354;2023-03-01T12:28:16;10.63;;;6.03;;
16954;SDS011;8594;52.052;8.354;2023-03-01T12:34:34;12.00;;;5.60;;
16954;SDS011;8594;52.052;8.354;2023-03-01T12:37:22;9.07;;;5.30;;
16954;SDS011;8594;52.052;8.354;2023-03-01T12:43:04;8.97;;;5.43;;
16954;SDS011;8594;52.052;8.354;2023-03-01T12:45:50;14.73;;;5.83;;
16954;SDS011;8594;52.052;8.354;2023-03-01T12:48:39;14.27;;;6.10;;
16954;SDS011;8594;52.052;8.354;2023-03-01T12:51:16;8.97;;;5.93;;
16954;SDS011;8594;52.052;8.354;2023-03-01T12:53:50;10.50;;;5.63;;
16954;SDS011;8594;52.052;8.354;2023-03-01T12:56:21;10.60;;;6.20;;
16954;SDS011;8594;52.052;8.354;2023-03-01T12:58:54;12.93;;;6.87;;
16954;SDS011;8594;52.052;8.354;2023-03-01T13:01:39;14.27;;;7.10;;
16954;SDS011;8594;52.052;8.354;2023-03-01T13:04:21;20.37;;;7.87;;
16954;SDS011;8594;52.052;8.354;2023-03-01T13:07:07;9.87;;;6.27;;
16954;SDS011;8594;52.052;8.354;2023-03-01T13:09:52;11.17;;;6.57;;
16954;SDS011;8594;52.052;8.354;2023-03-01T13:12:46;13.97;;;6.90;;
16954;SDS011;8594;52.052;8.354;2023-03-01T13:15:27;13.17;;;7.00;;
16954;SDS011;8594;52.052;8.354;2023-03-01T13:18:00;13.37;;;6.73;;
16954;SDS011;8594;52.052;8.354;2023-03-01T13:20:31;10.37;;;6.27;;
16954;SDS011;8594;52.052;8.354;2023-03-01T13:23:11;18.80;;;7.37;;
16954;SDS011;8594;52.052;8.354;2023-03-01T13:26:01;12.20;;;5.93;;
16954;SDS011;8594;52.052;8.354;2023-03-01T13:28:41;13.53;;;7.10;;
16954;SDS011;8594;52.052;8.354;2023-03-01T13:34:43;13.50;;;6.47;;
16954;SDS011;8594;52.052;8.354;2023-03-01T13:37:19;15.40;;;6.00;;
16954;SDS011;8594;52.052;8.354;2023-03-01T13:40:02;13.03;;;6.63;;
16954;SDS011;8594;52.052;8.354;2023-03-01T13:43:28;13.57;;;6.67;;
16954;SDS011;8594;52.052;8.354;2023-03-01T13:45:58;10.30;;;6.30;;
16954;SDS011;8594;52.052;8.354;2023-03-01T13:48:28;13.20;;;6.80;;
16954;SDS011;8594;52.052;8.354;2023-03-01T13:50:58;11.87;;;6.70;;
16954;SDS011;8594;52.052;8.354;2023-03-01T13:53:29;15.60;;;7.83;;
16954;SDS011;8594;52.052;8.354;2023-03-01T13:56:02;12.90;;;6.57;;
16954;SDS011;8594;52.052;8.354;2023-03-01T13:58:43;16.93;;;7.37;;
16954;SDS011;8594;52.052;8.354;2023-03-01T14:01:27;12.60;;;6.97;;
16954;SDS011;8594;52.052;8.354;2023-03-01T14:03:58;15.53;;;7.47;;
16954;SDS011;8594;52.052;8.354;2023-03-01T14:06:27;10.57;;;6.23;;
16954;SDS011;8594;52.052;8.354;2023-03-01T14:09:01;16.17;;;7.07;;
16954;SDS011;8594;52.052;8.354;2023-03-01T14:11:43;10.87;;;6.23;;
16954;SDS011;8594;52.052;8.354;2023-03-01T14:14:40;15.40;;;6.60;;
16954;SDS011;8594;52.052;8.354;2023-03-01T14:17:17;13.87;;;6.73;;
16954;SDS011;8594;52.052;8.354;2023-03-01T14:20:13;11.93;;;5.90;;
16954;SDS011;8594;52.052;8.354;2023-03-01T14:22:45;11.80;;;6.07;;
16954;SDS011;8594;52.052;8.354;2023-03-01T14:25:19;11.37;;;6.30;;
16954;SDS011;8594;52.052;8.354;2023-03-01T14:27:51;14.83;;;6.40;;
16954;SDS011;8594;52.052;8.354;2023-03-01T14:30:25;11.13;;;5.70;;
16954;SDS011;8594;52.052;8.354;2023-03-01T14:32:59;15.03;;;6.50;;
16954;SDS011;8594;52.052;8.354;2023-03-01T14:35:32;12.73;;;6.40;;
16954;SDS011;8594;52.052;8.354;2023-03-01T14:38:02;16.63;;;6.37;;
16954;SDS011;8594;52.052;8.354;2023-03-01T14:40:31;15.63;;;6.67;;
16954;SDS011;8594;52.052;8.354;2023-03-01T14:43:01;11.90;;;6.17;;
16954;SDS011;8594;52.052;8.354;2023-03-01T14:45:36;13.97;;;6.27;;
16954;SDS011;8594;52.052;8.354;2023-03-01T14:48:04;11.63;;;5.90;;
16954;SDS011;8594;52.052;8.354;2023-03-01T14:50:35;10.63;;;5.40;;
16954;SDS011;8594;52.052;8.354;2023-03-01T14:53:12;13.27;;;6.40;;
16954;SDS011;8594;52.052;8.354;2023-03-01T14:55:46;9.47;;;5.43;;
16954;SDS011;8594;52.052;8.354;2023-03-01T14:58:18;14.73;;;6.07;;
16954;SDS011;8594;52.052;8.354;2023-03-01T15:00:49;12.37;;;6.17;;
16954;SDS011;8594;52.052;8.354;2023-03-01T15:03:26;12.97;;;7.77;;
16954;SDS011;8594;52.052;8.354;2023-03-01T15:06:01;13.60;;;5.93;;
16954;SDS011;8594;52.052;8.354;2023-03-01T15:08:31;14.67;;;6.30;;
16954;SDS011;8594;52.052;8.354;2023-03-01T15:11:00;11.27;;;6.00;;
16954;SDS011;8594;52.052;8.354;2023-03-01T15:13:31;13.30;;;6.80;;
16954;SDS011;8594;52.052;8.354;2023-03-01T15:16:01;12.43;;;6.00;;
16954;SDS011;8594;52.052;8.354;2023-03-01T15:18:33;13.27;;;6.50;;
16954;SDS011;8594;52.052;8.354;2023-03-01T15:21:07;10.90;;;5.57;;
16954;SDS011;8594;52.052;8.354;2023-03-01T15:23:40;12.33;;;5.80;;
16954;SDS011;8594;52.052;8.354;2023-03-01T15:26:16;14.23;;;5.57;;
16954;SDS011;8594;52.052;8.354;2023-03-01T15:28:52;8.50;;;5.30;;
16954;SDS011;8594;52.052;8.354;2023-03-01T15:31:23;13.30;;;5.30;;